sensor_id;sensor_type;location;lat;lon;timestamp;temperature;humidity
54429;DHT22;40337;52.978;6.310;2023-09-30T00:00:45;12.00;99.90
54429;DHT22;40337;52.978;6.310;2023-09-30T00:03:11;12.00;99.90
54429;DHT22;40337;52.978;6.310;2023-09-30T00:05:37;12.00;99.90
54429;DHT22;40337;52.978;6.310;2023-09-30T00:08:04;12.00;99.90
54429;DHT22;40337;52.978;6.310;2023-09-30T00:10:30;12.00;99.90
54429;DHT22;40337;52.978;6.310;2023-09-30T00:12:56;12.00;99.90
54429;DHT22;40337;52.978;6.310;2023-09-30T00:15:25;12.00;99.90
54429;DHT22;40337;52.978;6.310;2023-09-30T00:17:50;11.90;99.90
54429;DHT22;40337;52.978;6.310;2023-09-30T00:20:16;11.90;99.90
54429;DHT22;40337;52.978;6.310;2023-09-30T00:22:42;11.90;99.90
54429;DHT22;40337;52.978;6.310;2023-09-30T00:25:08;11.90;99.90
54429;DHT22;40337;52.978;6.310;2023-09-30T00:27:34;11.90;99.90
54429;DHT22;40337;52.978;6.310;2023-09-30T00:29:59;11.90;99.90
54429;DHT22;40337;52.978;6.310;2023-09-30T00:32:25;11.90;99.90
54429;DHT22;40337;52.978;6.310;2023-09-30T00:34:50;11.80;99.90
54429;DHT22;40337;52.978;6.310;2023-09-30T00:37:17;11.90;99.90
54429;DHT22;40337;52.978;6.310;2023-09-30T00:39:43;11.90;99.90
54429;DHT22;40337;52.978;6.310;2023-09-30T00:42:10;11.90;99.90
54429;DHT22;40337;52.978;6.310;2023-09-30T00:44:35;11.90;99.90
54429;DHT22;40337;52.978;6.310;2023-09-30T00:47:01;11.90;99.90
54429;DHT22;40337;52.978;6.310;2023-09-30T00:49:27;12.00;99.90
54429;DHT22;40337;52.978;6.310;2023-09-30T00:51:54;11.90;99.90
54429;DHT22;40337;52.978;6.310;2023-09-30T00:54:21;12.00;99.90
54429;DHT22;40337;52.978;6.310;2023-09-30T00:56:49;12.00;99.90
54429;DHT22;40337;52.978;6.310;2023-09-30T00:59:16;12.00;99.90
54429;DHT22;40337;52.978;6.310;2023-09-30T01:01:42;12.00;99.90
54429;DHT22;40337;52.978;6.310;2023-09-30T01:04:09;12.00;99.90
54429;DHT22;40337;52.978;6.310;2023-09-30T01:06:35;11.90;99.90
54429;DHT22;40337;52.978;6.310;2023-09-30T01:09:01;11.90;99.90
54429;DHT22;40337;52.978;6.310;2023-09-30T01:11:26;11.90;99.90
54429;DHT22;40337;52.978;6.310;2023-09-30T01:13:52;11.90;99.90
54429;DHT22;40337;52.978;6.310;2023-09-30T01:16:17;11.90;99.90
54429;DHT22;40337;52.978;6.310;2023-09-30T01:18:43;11.90;99.90
54429;DHT22;40337;52.978;6.310;2023-09-30T01:21:09;11.90;99.90
54429;DHT22;40337;52.978;6.310;2023-09-30T01:23:35;11.90;99.90
54429;DHT22;40337;52.978;6.310;2023-09-30T01:26:11;12.00;99.90
54429;DHT22;40337;52.978;6.310;2023-09-30T01:28:38;12.00;99.90
54429;DHT22;40337;52.978;6.310;2023-09-30T01:31:04;12.00;99.90
54429;DHT22;40337;52.978;6.310;2023-09-30T01:33:30;12.10;99.90
54429;DHT22;40337;52.978;6.310;2023-09-30T01:35:56;12.10;99.90
54429;DHT22;40337;52.978;6.310;2023-09-30T01:38:22;12.10;99.90
54429;DHT22;40337;52.978;6.310;2023-09-30T01:40:47;12.10;99.90
54429;DHT22;40337;52.978;6.310;2023-09-30T01:43:14;12.10;99.90
54429;DHT22;40337;52.978;6.310;2023-09-30T01:45:40;12.20;99.90
54429;DHT22;40337;52.978;6.310;2023-09-30T01:48:06;12.10;99.90
54429;DHT22;40337;52.978;6.310;2023-09-30T01:50:32;12.10;99.90
54429;DHT22;40337;52.978;6.310;2023-09-30T01:52:57;12.10;99.90
54429;DHT22;40337;52.978;6.310;2023-09-30T01:55:23;12.10;99.90
54429;DHT22;40337;52.978;6.310;2023-09-30T01:57:49;12.10;99.90
54429;DHT22;40337;52.978;6.310;2023-09-30T02:00:14;12.10;99.90
54429;DHT22;40337;52.978;6.310;2023-09-30T02:02:40;12.10;99.90
54429;DHT22;40337;52.978;6.310;2023-09-30T02:05:07;12.10;99.90
54429;DHT22;40337;52.978;6.310;2023-09-30T02:07:35;12.00;99.90
54429;DHT22;40337;52.978;6.310;2023-09-30T02:10:01;12.00;99.90
54429;DHT22;40337;52.978;6.310;2023-09-30T02:12:27;12.00;99.90
54429;DHT22;40337;52.978;6.310;2023-09-30T02:14:58;12.00;99.90
54429;DHT22;40337;52.978;6.310;2023-09-30T02:17:23;12.00;99.90
54429;DHT22;40337;52.978;6.310;2023-09-30T02:19:49;12.10;99.90
54429;DHT22;40337;52.978;6.310;2023-09-30T02:22:15;12.10;99.90
54429;DHT22;40337;52.978;6.310;2023-09-30T02:24:41;12.10;99.90
54429;DHT22;40337;52.978;6.310;2023-09-30T02:27:06;12.20;99.90
54429;DHT22;40337;52.978;6.310;2023-09-30T02:29:32;12.20;99.90
54429;DHT22;40337;52.978;6.310;2023-09-30T02:31:58;12.20;99.90
54429;DHT22;40337;52.978;6.310;2023-09-30T02:34:24;12.20;99.90
54429;DHT22;40337;52.978;6.310;2023-09-30T02:36:49;12.30;99.90
54429;DHT22;40337;52.978;6.310;2023-09-30T02:39:15;12.30;99.90
54429;DHT22;40337;52.978;6.310;2023-09-30T02:41:45;12.30;99.90
54429;DHT22;40337;52.978;6.310;2023-09-30T02:44:10;12.30;99.90
54429;DHT22;40337;52.978;6.310;2023-09-30T02:46:36;12.30;99.90
54429;DHT22;40337;52.978;6.310;2023-09-30T02:49:02;12.30;99.90
54429;DHT22;40337;52.978;6.310;2023-09-30T02:51:28;12.30;99.90
54429;DHT22;40337;52.978;6.310;2023-09-30T02:53:55;12.30;99.90
54429;DHT22;40337;52.978;6.310;2023-09-30T02:56:21;12.30;99.90
54429;DHT22;40337;52.978;6.310;2023-09-30T02:58:50;12.30;99.90
54429;DHT22;40337;52.978;6.310;2023-09-30T03:01:17;12.30;99.90
54429;DHT22;40337;52.978;6.310;2023-09-30T03:03:43;12.30;99.90
54429;DHT22;40337;52.978;6.310;2023-09-30T03:06:11;12.30;99.90
54429;DHT22;40337;52.978;6.310;2023-09-30T03:08:37;12.40;99.90
54429;DHT22;40337;52.978;6.310;2023-09-30T03:11:03;12.40;99.90
54429;DHT22;40337;52.978;6.310;2023-09-30T03:13:30;12.40;99.90
54429;DHT22;40337;52.978;6.310;2023-09-30T03:15:56;12.40;99.90
54429;DHT22;40337;52.978;6.310;2023-09-30T03:18:22;12.40;99.90
54429;DHT22;40337;52.978;6.310;2023-09-30T03:20:58;12.40;99.90
54429;DHT22;40337;52.978;6.310;2023-09-30T03:23:26;12.40;99.90
54429;DHT22;40337;52.978;6.310;2023-09-30T03:25:59;12.50;99.90
54429;DHT22;40337;52.978;6.310;2023-09-30T03:28:26;12.40;99.90
54429;DHT22;40337;52.978;6.310;2023-09-30T03:30:51;12.50;99.90
54429;DHT22;40337;52.978;6.310;2023-09-30T03:33:17;12.40;99.90
54429;DHT22;40337;52.978;6.310;2023-09-30T03:35:43;12.30;99.90
54429;DHT22;40337;52.978;6.310;2023-09-30T03:38:10;12.30;99.90
54429;DHT22;40337;52.978;6.310;2023-09-30T03:40:35;12.30;99.90
54429;DHT22;40337;52.978;6.310;2023-09-30T03:43:04;12.20;99.90
54429;DHT22;40337;52.978;6.310;2023-09-30T03:45:31;12.20;99.90
54429;DHT22;40337;52.978;6.310;2023-09-30T03:48:01;12.20;99.90
54429;DHT22;40337;52.978;6.310;2023-09-30T03:50:28;12.10;99.90
54429;DHT22;40337;52.978;6.310;2023-09-30T03:53:01;12.10;99.90
54429;DHT22;40337;52.978;6.310;2023-09-30T03:55:27;12.10;99.90
54429;DHT22;40337;52.978;6.310;2023-09-30T03:57:55;12.10;99.90
54429;DHT22;40337;52.978;6.310;2023-09-30T04:00:20;12.00;99.90
54429;DHT22;40337;52.978;6.310;2023-09-30T04:02:47;12.00;99.90
54429;DHT22;40337;52.978;6.310;2023-09-30T04:05:20;12.00;99.90
54429;DHT22;40337;52.978;6.310;2023-09-30T04:07:51;11.90;99.90
54429;DHT22;40337;52.978;6.310;2023-09-30T04:10:17;12.00;99.90
54429;DHT22;40337;52.978;6.310;2023-09-30T04:12:43;12.00;99.90
54429;DHT22;40337;52.978;6.310;2023-09-30T04:15:09;12.00;99.90
54429;DHT22;40337;52.978;6.310;2023-09-30T04:17:37;12.00;99.90
54429;DHT22;40337;52.978;6.310;2023-09-30T04:20:05;12.00;99.90
54429;DHT22;40337;52.978;6.310;2023-09-30T04:22:34;12.00;99.90
54429;DHT22;40337;52.978;6.310;2023-09-30T04:25:00;11.90;99.90
54429;DHT22;40337;52.978;6.310;2023-09-30T04:27:26;11.90;99.90
54429;DHT22;40337;52.978;6.310;2023-09-30T04:29:52;11.90;99.90
54429;DHT22;40337;52.978;6.310;2023-09-30T04:32:18;11.80;99.90
54429;DHT22;40337;52.978;6.310;2023-09-30T04:34:45;11.80;99.90
54429;DHT22;40337;52.978;6.310;2023-09-30T04:37:12;11.80;99.90
54429;DHT22;40337;52.978;6.310;2023-09-30T04:39:39;11.80;99.90
54429;DHT22;40337;52.978;6.310;2023-09-30T04:42:05;11.80;99.90
54429;DHT22;40337;52.978;6.310;2023-09-30T04:44:30;11.80;99.90
54429;DHT22;40337;52.978;6.310;2023-09-30T04:46:57;11.80;99.90
54429;DHT22;40337;52.978;6.310;2023-09-30T04:49:23;11.70;99.90
54429;DHT22;40337;52.978;6.310;2023-09-30T04:51:49;11.70;99.90
54429;DHT22;40337;52.978;6.310;2023-09-30T04:54:14;11.70;99.90
54429;DHT22;40337;52.978;6.310;2023-09-30T04:56:40;11.70;99.90
54429;DHT22;40337;52.978;6.310;2023-09-30T04:59:06;11.70;99.90
54429;DHT22;40337;52.978;6.310;2023-09-30T05:01:32;11.70;99.90
54429;DHT22;40337;52.978;6.310;2023-09-30T05:03:58;11.70;99.90
54429;DHT22;40337;52.978;6.310;2023-09-30T05:06:24;11.70;99.90
54429;DHT22;40337;52.978;6.310;2023-09-30T05:08:50;11.70;99.90
54429;DHT22;40337;52.978;6.310;2023-09-30T05:11:15;11.70;99.90
54429;DHT22;40337;52.978;6.310;2023-09-30T05:13:41;11.70;99.90
54429;DHT22;40337;52.978;6.310;2023-09-30T05:16:06;11.60;99.90
54429;DHT22;40337;52.978;6.310;2023-09-30T05:18:35;11.60;99.90
54429;DHT22;40337;52.978;6.310;2023-09-30T05:21:00;11.60;99.90
54429;DHT22;40337;52.978;6.310;2023-09-30T05:23:26;11.60;99.90
54429;DHT22;40337;52.978;6.310;2023-09-30T05:25:52;11.70;99.90
54429;DHT22;40337;52.978;6.310;2023-09-30T05:28:19;11.70;99.90
54429;DHT22;40337;52.978;6.310;2023-09-30T05:30:45;11.60;99.90
54429;DHT22;40337;52.978;6.310;2023-09-30T05:33:11;11.70;99.90
54429;DHT22;40337;52.978;6.310;2023-09-30T05:35:43;11.70;99.90
54429;DHT22;40337;52.978;6.310;2023-09-30T05:38:08;11.70;99.90
54429;DHT22;40337;52.978;6.310;2023-09-30T05:40:35;11.60;99.90
54429;DHT22;40337;52.978;6.310;2023-09-30T05:43:01;11.60;99.90
54429;DHT22;40337;52.978;6.310;2023-09-30T05:45:28;11.60;99.90
54429;DHT22;40337;52.978;6.310;2023-09-30T05:47:55;11.60;99.90
54429;DHT22;40337;52.978;6.310;2023-09-30T05:50:22;11.60;99.90
54429;DHT22;40337;52.978;6.310;2023-09-30T05:52:52;11.60;99.90
54429;DHT22;40337;52.978;6.310;2023-09-30T05:55:18;11.60;99.90
54429;DHT22;40337;52.978;6.310;2023-09-30T05:57:49;11.60;99.90
54429;DHT22;40337;52.978;6.310;2023-09-30T06:00:16;11.60;99.90
54429;DHT22;40337;52.978;6.310;2023-09-30T06:02:53;11.60;99.90
54429;DHT22;40337;52.978;6.310;2023-09-30T06:05:19;11.60;99.90
54429;DHT22;40337;52.978;6.310;2023-09-30T06:07:51;11.60;99.90
54429;DHT22;40337;52.978;6.310;2023-09-30T06:10:17;11.60;99.90
54429;DHT22;40337;52.978;6.310;2023-09-30T06:12:48;11.50;99.90
54429;DHT22;40337;52.978;6.310;2023-09-30T06:15:16;11.50;99.90
54429;DHT22;40337;52.978;6.310;2023-09-30T06:17:49;11.50;99.90
54429;DHT22;40337;52.978;6.310;2023-09-30T06:20:14;11.50;99.90
54429;DHT22;40337;52.978;6.310;2023-09-30T06:22:44;11.60;99.90
54429;DHT22;40337;52.978;6.310;2023-09-30T06:25:15;11.60;99.90
54429;DHT22;40337;52.978;6.310;2023-09-30T06:27:45;11.60;99.90
54429;DHT22;40337;52.978;6.310;2023-09-30T06:30:12;11.60;99.90
54429;DHT22;40337;52.978;6.310;2023-09-30T06:32:38;11.60;99.90
54429;DHT22;40337;52.978;6.310;2023-09-30T06:35:05;11.60;99.90
54429;DHT22;40337;52.978;6.310;2023-09-30T06:37:32;11.60;99.90
54429;DHT22;40337;52.978;6.310;2023-09-30T06:39:58;11.60;99.90
54429;DHT22;40337;52.978;6.310;2023-09-30T06:42:24;11.60;99.90
54429;DHT22;40337;52.978;6.310;2023-09-30T06:44:50;11.70;99.90
54429;DHT22;40337;52.978;6.310;2023-09-30T06:47:16;11.70;99.90
54429;DHT22;40337;52.978;6.310;2023-09-30T06:49:41;11.70;99.90
54429;DHT22;40337;52.978;6.310;2023-09-30T06:52:07;11.80;99.90
54429;DHT22;40337;52.978;6.310;2023-09-30T06:54:34;11.80;99.90
54429;DHT22;40337;52.978;6.310;2023-09-30T06:56:59;11.90;99.90
54429;DHT22;40337;52.978;6.310;2023-09-30T06:59:25;11.90;99.90
54429;DHT22;40337;52.978;6.310;2023-09-30T07:01:51;11.90;99.90
54429;DHT22;40337;52.978;6.310;2023-09-30T07:04:17;12.00;99.90
54429;DHT22;40337;52.978;6.310;2023-09-30T07:06:42;12.10;99.90
54429;DHT22;40337;52.978;6.310;2023-09-30T07:09:08;12.20;99.90
54429;DHT22;40337;52.978;6.310;2023-09-30T07:11:35;12.20;99.90
54429;DHT22;40337;52.978;6.310;2023-09-30T07:14:01;12.30;99.90
54429;DHT22;40337;52.978;6.310;2023-09-30T07:16:27;12.30;99.90
54429;DHT22;40337;52.978;6.310;2023-09-30T07:18:53;12.40;99.90
54429;DHT22;40337;52.978;6.310;2023-09-30T07:21:18;12.50;99.90
54429;DHT22;40337;52.978;6.310;2023-09-30T07:23:45;12.50;99.90
54429;DHT22;40337;52.978;6.310;2023-09-30T07:26:10;12.70;99.90
54429;DHT22;40337;52.978;6.310;2023-09-30T07:28:36;12.70;99.90
54429;DHT22;40337;52.978;6.310;2023-09-30T07:31:02;12.80;99.90
54429;DHT22;40337;52.978;6.310;2023-09-30T07:33:28;12.80;99.90
54429;DHT22;40337;52.978;6.310;2023-09-30T07:35:55;12.90;99.90
54429;DHT22;40337;52.978;6.310;2023-09-30T07:38:21;13.00;99.90
54429;DHT22;40337;52.978;6.310;2023-09-30T07:40:47;13.00;99.90
54429;DHT22;40337;52.978;6.310;2023-09-30T07:43:14;13.10;99.90
54429;DHT22;40337;52.978;6.310;2023-09-30T07:45:40;13.20;99.90
54429;DHT22;40337;52.978;6.310;2023-09-30T07:48:07;13.20;99.90
54429;DHT22;40337;52.978;6.310;2023-09-30T07:50:35;13.30;99.90
54429;DHT22;40337;52.978;6.310;2023-09-30T07:53:00;13.30;99.90
54429;DHT22;40337;52.978;6.310;2023-09-30T07:55:26;13.40;99.90
54429;DHT22;40337;52.978;6.310;2023-09-30T07:57:51;13.50;99.90
54429;DHT22;40337;52.978;6.310;2023-09-30T08:00:18;13.50;99.90
54429;DHT22;40337;52.978;6.310;2023-09-30T08:02:46;13.70;99.90
54429;DHT22;40337;52.978;6.310;2023-09-30T08:05:12;13.70;99.90
54429;DHT22;40337;52.978;6.310;2023-09-30T08:07:38;13.80;99.90
54429;DHT22;40337;52.978;6.310;2023-09-30T08:10:04;13.80;99.90
54429;DHT22;40337;52.978;6.310;2023-09-30T08:12:30;13.90;99.90
54429;DHT22;40337;52.978;6.310;2023-09-30T08:14:56;14.00;99.90
54429;DHT22;40337;52.978;6.310;2023-09-30T08:17:21;14.00;99.90
54429;DHT22;40337;52.978;6.310;2023-09-30T08:19:47;14.10;99.90
54429;DHT22;40337;52.978;6.310;2023-09-30T08:22:13;14.20;99.90
54429;DHT22;40337;52.978;6.310;2023-09-30T08:24:39;14.30;99.90
54429;DHT22;40337;52.978;6.310;2023-09-30T08:27:05;14.30;99.90
54429;DHT22;40337;52.978;6.310;2023-09-30T08:29:34;14.40;99.90
54429;DHT22;40337;52.978;6.310;2023-09-30T08:32:01;14.50;99.90
54429;DHT22;40337;52.978;6.310;2023-09-30T08:34:28;14.60;99.90
54429;DHT22;40337;52.978;6.310;2023-09-30T08:36:54;14.60;99.90
54429;DHT22;40337;52.978;6.310;2023-09-30T08:39:20;14.70;99.90
54429;DHT22;40337;52.978;6.310;2023-09-30T08:41:45;14.80;99.90
54429;DHT22;40337;52.978;6.310;2023-09-30T08:44:11;14.90;99.90
54429;DHT22;40337;52.978;6.310;2023-09-30T08:46:39;15.00;99.90
54429;DHT22;40337;52.978;6.310;2023-09-30T08:49:06;15.10;99.90
54429;DHT22;40337;52.978;6.310;2023-09-30T08:51:32;15.20;99.90
54429;DHT22;40337;52.978;6.310;2023-09-30T08:53:59;15.20;99.90
54429;DHT22;40337;52.978;6.310;2023-09-30T08:56:28;15.40;99.90
54429;DHT22;40337;52.978;6.310;2023-09-30T08:58:58;15.40;99.90
54429;DHT22;40337;52.978;6.310;2023-09-30T09:01:28;15.50;99.90
54429;DHT22;40337;52.978;6.310;2023-09-30T09:03:54;15.60;99.90
54429;DHT22;40337;52.978;6.310;2023-09-30T09:06:24;15.70;99.90
54429;DHT22;40337;52.978;6.310;2023-09-30T09:08:50;15.80;99.90
54429;DHT22;40337;52.978;6.310;2023-09-30T09:11:17;15.80;99.90
54429;DHT22;40337;52.978;6.310;2023-09-30T09:16:15;16.10;99.90
54429;DHT22;40337;52.978;6.310;2023-09-30T09:18:40;16.10;99.90
54429;DHT22;40337;52.978;6.310;2023-09-30T09:21:20;16.20;99.90
54429;DHT22;40337;52.978;6.310;2023-09-30T09:23:49;16.30;99.90
54429;DHT22;40337;52.978;6.310;2023-09-30T09:26:30;16.40;99.90
54429;DHT22;40337;52.978;6.310;2023-09-30T09:28:58;16.50;99.90
54429;DHT22;40337;52.978;6.310;2023-09-30T09:31:28;16.90;99.90
54429;DHT22;40337;52.978;6.310;2023-09-30T09:33:54;16.90;99.90
54429;DHT22;40337;52.978;6.310;2023-09-30T09:36:20;16.80;99.90
54429;DHT22;40337;52.978;6.310;2023-09-30T09:38:50;16.70;99.90
54429;DHT22;40337;52.978;6.310;2023-09-30T09:41:22;16.70;99.90
54429;DHT22;40337;52.978;6.310;2023-09-30T09:43:50;16.80;99.90
54429;DHT22;40337;52.978;6.310;2023-09-30T09:46:17;16.80;99.90
54429;DHT22;40337;52.978;6.310;2023-09-30T09:48:45;16.80;99.90
54429;DHT22;40337;52.978;6.310;2023-09-30T09:51:13;16.80;99.90
54429;DHT22;40337;52.978;6.310;2023-09-30T09:53:41;16.80;99.90
54429;DHT22;40337;52.978;6.310;2023-09-30T09:56:10;16.90;99.90
54429;DHT22;40337;52.978;6.310;2023-09-30T09:58:37;17.00;99.90
54429;DHT22;40337;52.978;6.310;2023-09-30T10:01:07;17.10;99.90
54429;DHT22;40337;52.978;6.310;2023-09-30T10:03:34;17.10;99.90
54429;DHT22;40337;52.978;6.310;2023-09-30T10:05:59;17.10;99.90
54429;DHT22;40337;52.978;6.310;2023-09-30T10:08:33;17.30;99.90
54429;DHT22;40337;52.978;6.310;2023-09-30T10:11:01;17.30;99.90
54429;DHT22;40337;52.978;6.310;2023-09-30T10:21:37;17.10;99.90
54429;DHT22;40337;52.978;6.310;2023-09-30T10:27:27;17.40;99.90
54429;DHT22;40337;52.978;6.310;2023-09-30T10:35:16;17.90;99.90
54429;DHT22;40337;52.978;6.310;2023-09-30T10:37:43;18.10;99.90
54429;DHT22;40337;52.978;6.310;2023-09-30T10:40:08;18.40;99.90
54429;DHT22;40337;52.978;6.310;2023-09-30T10:42:48;18.90;99.90
54429;DHT22;40337;52.978;6.310;2023-09-30T10:50:59;19.00;99.90
54429;DHT22;40337;52.978;6.310;2023-09-30T10:53:29;18.90;99.90
54429;DHT22;40337;52.978;6.310;2023-09-30T10:56:00;18.80;99.90
54429;DHT22;40337;52.978;6.310;2023-09-30T10:58:47;18.80;99.90
54429;DHT22;40337;52.978;6.310;2023-09-30T11:01:23;18.60;99.90
54429;DHT22;40337;52.978;6.310;2023-09-30T11:03:59;18.40;99.90
54429;DHT22;40337;52.978;6.310;2023-09-30T11:06:29;18.20;99.90
54429;DHT22;40337;52.978;6.310;2023-09-30T11:08:59;18.00;99.90
54429;DHT22;40337;52.978;6.310;2023-09-30T11:11:41;18.20;99.90
54429;DHT22;40337;52.978;6.310;2023-09-30T11:16:52;19.50;99.90
54429;DHT22;40337;52.978;6.310;2023-09-30T11:19:19;20.20;99.90
54429;DHT22;40337;52.978;6.310;2023-09-30T11:21:50;20.80;99.90
54429;DHT22;40337;52.978;6.310;2023-09-30T11:24:16;21.00;99.90
54429;DHT22;40337;52.978;6.310;2023-09-30T11:26:43;21.50;99.90
54429;DHT22;40337;52.978;6.310;2023-09-30T11:29:10;21.70;99.90
54429;DHT22;40337;52.978;6.310;2023-09-30T11:31:40;22.10;99.90
54429;DHT22;40337;52.978;6.310;2023-09-30T11:34:07;22.30;99.90
54429;DHT22;40337;52.978;6.310;2023-09-30T11:36:37;22.00;99.90
54429;DHT22;40337;52.978;6.310;2023-09-30T11:39:03;21.70;99.90
54429;DHT22;40337;52.978;6.310;2023-09-30T11:41:34;21.50;99.90
54429;DHT22;40337;52.978;6.310;2023-09-30T11:44:08;21.10;99.90
54429;DHT22;40337;52.978;6.310;2023-09-30T11:49:38;21.30;99.90
54429;DHT22;40337;52.978;6.310;2023-09-30T11:52:11;21.30;99.90
54429;DHT22;40337;52.978;6.310;2023-09-30T11:54:43;21.20;99.90
54429;DHT22;40337;52.978;6.310;2023-09-30T11:57:14;21.30;99.90
54429;DHT22;40337;52.978;6.310;2023-09-30T11:59:44;21.30;99.90
54429;DHT22;40337;52.978;6.310;2023-09-30T12:02:16;21.20;99.90
54429;DHT22;40337;52.978;6.310;2023-09-30T12:04:43;21.20;99.90
54429;DHT22;40337;52.978;6.310;2023-09-30T12:07:09;21.20;99.90
54429;DHT22;40337;52.978;6.310;2023-09-30T12:09:35;21.30;99.90
54429;DHT22;40337;52.978;6.310;2023-09-30T12:12:03;21.30;99.90
54429;DHT22;40337;52.978;6.310;2023-09-30T12:14:29;21.40;99.90
54429;DHT22;40337;52.978;6.310;2023-09-30T12:16:56;21.50;99.90
54429;DHT22;40337;52.978;6.310;2023-09-30T12:19:22;21.20;99.90
54429;DHT22;40337;52.978;6.310;2023-09-30T12:21:48;20.80;99.90
54429;DHT22;40337;52.978;6.310;2023-09-30T12:24:15;20.40;99.90
54429;DHT22;40337;52.978;6.310;2023-09-30T12:26:45;20.00;99.90
54429;DHT22;40337;52.978;6.310;2023-09-30T12:29:17;19.80;99.90
54429;DHT22;40337;52.978;6.310;2023-09-30T12:31:47;19.60;99.90
54429;DHT22;40337;52.978;6.310;2023-09-30T12:34:13;19.50;99.90
54429;DHT22;40337;52.978;6.310;2023-09-30T12:36:40;19.50;99.90
54429;DHT22;40337;52.978;6.310;2023-09-30T12:39:05;19.40;99.90
54429;DHT22;40337;52.978;6.310;2023-09-30T12:41:42;19.30;99.90
54429;DHT22;40337;52.978;6.310;2023-09-30T12:44:09;19.30;99.90
54429;DHT22;40337;52.978;6.310;2023-09-30T12:46:35;19.30;99.90
54429;DHT22;40337;52.978;6.310;2023-09-30T12:49:02;19.30;99.90
54429;DHT22;40337;52.978;6.310;2023-09-30T12:51:29;19.70;99.90
54429;DHT22;40337;52.978;6.310;2023-09-30T12:53:54;19.90;99.90
54429;DHT22;40337;52.978;6.310;2023-09-30T12:56:20;20.10;99.90
54429;DHT22;40337;52.978;6.310;2023-09-30T12:58:45;20.30;99.90
54429;DHT22;40337;52.978;6.310;2023-09-30T13:01:11;20.40;99.90
54429;DHT22;40337;52.978;6.310;2023-09-30T13:03:37;20.60;99.90
54429;DHT22;40337;52.978;6.310;2023-09-30T13:06:02;20.70;99.90
54429;DHT22;40337;52.978;6.310;2023-09-30T13:08:29;20.90;99.90
54429;DHT22;40337;52.978;6.310;2023-09-30T13:11:02;21.10;99.90
54429;DHT22;40337;52.978;6.310;2023-09-30T13:13:32;21.20;99.90
54429;DHT22;40337;52.978;6.310;2023-09-30T13:16:02;21.00;99.90
54429;DHT22;40337;52.978;6.310;2023-09-30T13:18:31;20.90;99.90
54429;DHT22;40337;52.978;6.310;2023-09-30T13:20:56;20.80;99.90
54429;DHT22;40337;52.978;6.310;2023-09-30T13:23:22;20.60;99.90
54429;DHT22;40337;52.978;6.310;2023-09-30T13:25:48;20.50;99.90
54429;DHT22;40337;52.978;6.310;2023-09-30T13:28:14;20.50;99.90
54429;DHT22;40337;52.978;6.310;2023-09-30T13:30:39;20.60;99.90
54429;DHT22;40337;52.978;6.310;2023-09-30T13:33:05;20.70;99.90
54429;DHT22;40337;52.978;6.310;2023-09-30T13:35:31;20.70;99.90
54429;DHT22;40337;52.978;6.310;2023-09-30T13:37:57;20.90;99.90
54429;DHT22;40337;52.978;6.310;2023-09-30T13:40:22;20.90;99.90
54429;DHT22;40337;52.978;6.310;2023-09-30T13:42:48;20.90;99.90
54429;DHT22;40337;52.978;6.310;2023-09-30T13:45:14;20.90;99.90
54429;DHT22;40337;52.978;6.310;2023-09-30T13:47:42;20.90;99.90
54429;DHT22;40337;52.978;6.310;2023-09-30T13:50:08;20.80;99.90
54429;DHT22;40337;52.978;6.310;2023-09-30T13:52:34;20.70;99.90
54429;DHT22;40337;52.978;6.310;2023-09-30T13:55:00;20.50;99.90
54429;DHT22;40337;52.978;6.310;2023-09-30T13:57:26;20.40;99.90
54429;DHT22;40337;52.978;6.310;2023-09-30T13:59:51;20.50;99.90
54429;DHT22;40337;52.978;6.310;2023-09-30T14:02:17;20.70;99.90
54429;DHT22;40337;52.978;6.310;2023-09-30T14:04:43;20.80;99.90
54429;DHT22;40337;52.978;6.310;2023-09-30T14:07:09;20.80;99.90
54429;DHT22;40337;52.978;6.310;2023-09-30T14:09:34;20.70;99.90
54429;DHT22;40337;52.978;6.310;2023-09-30T14:12:00;20.60;99.90
54429;DHT22;40337;52.978;6.310;2023-09-30T14:14:26;20.50;99.90
54429;DHT22;40337;52.978;6.310;2023-09-30T14:16:52;20.40;99.90
54429;DHT22;40337;52.978;6.310;2023-09-30T14:19:17;20.20;99.90
54429;DHT22;40337;52.978;6.310;2023-09-30T14:21:43;20.20;99.90
54429;DHT22;40337;52.978;6.310;2023-09-30T14:24:09;20.20;99.90
54429;DHT22;40337;52.978;6.310;2023-09-30T14:26:35;20.20;99.90
54429;DHT22;40337;52.978;6.310;2023-09-30T14:29:01;20.10;99.90
54429;DHT22;40337;52.978;6.310;2023-09-30T14:31:27;20.00;99.90
54429;DHT22;40337;52.978;6.310;2023-09-30T14:33:52;20.00;99.90
54429;DHT22;40337;52.978;6.310;2023-09-30T14:36:18;20.10;99.90
54429;DHT22;40337;52.978;6.310;2023-09-30T14:38:45;20.10;99.90
54429;DHT22;40337;52.978;6.310;2023-09-30T14:41:11;20.10;99.90
54429;DHT22;40337;52.978;6.310;2023-09-30T14:43:40;20.20;99.90
54429;DHT22;40337;52.978;6.310;2023-09-30T14:46:06;20.10;99.90
54429;DHT22;40337;52.978;6.310;2023-09-30T14:48:32;20.00;99.90
54429;DHT22;40337;52.978;6.310;2023-09-30T14:50:57;19.80;99.90
54429;DHT22;40337;52.978;6.310;2023-09-30T14:53:23;19.90;99.90
54429;DHT22;40337;52.978;6.310;2023-09-30T14:55:50;19.70;99.90
54429;DHT22;40337;52.978;6.310;2023-09-30T14:58:15;19.70;99.90
54429;DHT22;40337;52.978;6.310;2023-09-30T15:00:41;19.70;99.90
54429;DHT22;40337;52.978;6.310;2023-09-30T15:03:07;19.60;99.90
54429;DHT22;40337;52.978;6.310;2023-09-30T15:05:33;19.50;99.90
54429;DHT22;40337;52.978;6.310;2023-09-30T15:07:59;19.50;99.90
54429;DHT22;40337;52.978;6.310;2023-09-30T15:10:27;19.40;99.90
54429;DHT22;40337;52.978;6.310;2023-09-30T15:12:53;19.40;99.90
54429;DHT22;40337;52.978;6.310;2023-09-30T15:15:18;19.40;99.90
54429;DHT22;40337;52.978;6.310;2023-09-30T15:17:44;19.40;99.90
54429;DHT22;40337;52.978;6.310;2023-09-30T15:20:10;19.30;99.90
54429;DHT22;40337;52.978;6.310;2023-09-30T15:22:36;19.30;99.90
54429;DHT22;40337;52.978;6.310;2023-09-30T15:25:02;19.20;99.90
54429;DHT22;40337;52.978;6.310;2023-09-30T15:27:28;19.20;99.90
54429;DHT22;40337;52.978;6.310;2023-09-30T15:29:53;19.10;99.90
54429;DHT22;40337;52.978;6.310;2023-09-30T15:32:20;19.10;99.90
54429;DHT22;40337;52.978;6.310;2023-09-30T15:34:46;19.00;99.90
54429;DHT22;40337;52.978;6.310;2023-09-30T15:37:12;19.00;99.90
54429;DHT22;40337;52.978;6.310;2023-09-30T15:39:39;18.90;99.90
54429;DHT22;40337;52.978;6.310;2023-09-30T15:42:06;18.90;99.90
54429;DHT22;40337;52.978;6.310;2023-09-30T15:44:34;18.80;99.90
54429;DHT22;40337;52.978;6.310;2023-09-30T15:46:59;18.80;99.90
54429;DHT22;40337;52.978;6.310;2023-09-30T15:49:25;18.70;99.90
54429;DHT22;40337;52.978;6.310;2023-09-30T15:51:50;18.60;99.90
54429;DHT22;40337;52.978;6.310;2023-09-30T15:54:16;18.60;99.90
54429;DHT22;40337;52.978;6.310;2023-09-30T15:56:41;18.50;99.90
54429;DHT22;40337;52.978;6.310;2023-09-30T15:59:08;18.40;99.90